createdAt,value
2019-05-23T00:00:48.219Z,10.88
2019-05-23T00:01:48.209Z,10.88
2019-05-23T00:02:48.210Z,10.81
2019-05-23T00:03:48.189Z,10.81
2019-05-23T00:04:48.180Z,10.88
2019-05-23T00:05:48.165Z,10.83
2019-05-23T00:06:48.169Z,10.80
2019-05-23T00:07:48.145Z,10.86
2019-05-23T00:08:48.144Z,10.86
2019-05-23T00:09:48.121Z,10.76
2019-05-23T00:10:48.113Z,10.74
2019-05-23T00:11:48.099Z,10.76
2019-05-23T00:12:48.097Z,10.63
2019-05-23T00:13:48.076Z,10.63
2019-05-23T00:14:48.081Z,10.60
2019-05-23T00:15:48.058Z,10.68
2019-05-23T00:16:48.043Z,10.66
2019-05-23T00:17:48.031Z,10.68
2019-05-23T00:18:48.021Z,10.76
2019-05-23T00:19:48.013Z,10.71
2019-05-23T00:20:48.020Z,10.74
2019-05-23T00:21:47.991Z,10.73
2019-05-23T00:22:47.978Z,10.66
2019-05-23T00:23:47.967Z,10.74
2019-05-23T00:24:47.957Z,10.63
2019-05-23T00:25:47.951Z,10.60
2019-05-23T00:26:47.974Z,10.53
2019-05-23T00:27:47.923Z,10.51
2019-05-23T00:28:47.912Z,10.53
2019-05-23T00:29:47.902Z,10.51
2019-05-23T00:30:47.892Z,10.56
2019-05-23T00:31:47.884Z,10.47
2019-05-23T00:32:47.888Z,10.51
2019-05-23T00:33:47.859Z,10.36
2019-05-23T00:34:47.852Z,10.30
2019-05-23T00:35:47.843Z,10.32
2019-05-23T00:36:47.828Z,10.33
2019-05-23T00:37:47.816Z,10.28
2019-05-23T00:38:47.815Z,10.37
2019-05-23T00:39:47.794Z,10.30
2019-05-23T00:40:47.784Z,10.19
2019-05-23T00:41:47.774Z,10.21
2019-05-23T00:42:47.821Z,10.21
2019-05-23T00:43:47.753Z,10.17
2019-05-23T00:44:47.754Z,10.22
2019-05-23T00:45:47.729Z,10.19
2019-05-23T00:46:47.720Z,10.15
2019-05-23T00:47:47.709Z,10.15
2019-05-23T00:48:47.698Z,10.25
2019-05-23T00:49:47.692Z,10.07
2019-05-23T00:50:47.692Z,10.12
2019-05-23T00:51:47.667Z,10.19
2019-05-23T00:52:47.660Z,10.18
2019-05-23T00:53:47.645Z,10.03
2019-05-23T00:54:47.635Z,10.14
2019-05-23T00:55:47.624Z,9.97
2019-05-23T00:56:47.627Z,10.01
2019-05-23T00:57:47.602Z,9.89
2019-05-23T00:58:47.594Z,9.86
2019-05-23T00:59:47.581Z,9.86
2019-05-23T01:00:47.571Z,9.88
2019-05-23T01:01:47.566Z,9.78
2019-05-23T01:02:47.563Z,9.89
2019-05-23T01:03:47.541Z,9.82
2019-05-23T01:04:47.527Z,9.81
2019-05-23T01:05:47.516Z,9.79
2019-05-23T01:06:47.506Z,9.75
2019-05-23T01:07:47.496Z,9.75
2019-05-23T01:08:47.498Z,9.88
2019-05-23T01:09:47.476Z,9.88
2019-05-23T01:10:47.463Z,9.82
2019-05-23T01:11:47.454Z,9.88
2019-05-23T01:12:47.444Z,9.83
2019-05-23T01:13:47.428Z,9.83
2019-05-23T01:14:47.429Z,9.79
2019-05-23T01:15:47.411Z,9.70
2019-05-23T01:16:47.401Z,9.76
2019-05-23T01:17:47.388Z,9.75
2019-05-23T01:18:47.374Z,9.70
2019-05-23T01:19:47.366Z,9.71
2019-05-23T01:20:47.362Z,9.66
2019-05-23T01:21:47.342Z,9.70
2019-05-23T01:22:47.331Z,9.71
2019-05-23T01:23:47.323Z,9.56
2019-05-23T01:24:47.314Z,9.57
2019-05-23T01:25:47.301Z,9.56
2019-05-23T01:26:47.297Z,9.45
2019-05-23T01:27:47.277Z,9.43
2019-05-23T01:28:47.268Z,9.42
2019-05-23T01:29:49.710Z,9.48
2019-05-23T01:30:47.252Z,9.38
2019-05-23T01:31:47.232Z,9.45
2019-05-23T01:32:47.233Z,9.32
2019-05-23T01:33:47.211Z,9.34
2019-05-23T01:34:47.202Z,9.21
2019-05-23T01:35:47.188Z,9.23
2019-05-23T01:36:47.178Z,9.23
2019-05-23T01:37:47.174Z,9.21
2019-05-23T01:38:47.166Z,9.20
2019-05-23T01:39:47.145Z,9.20
2019-05-23T01:40:47.137Z,9.24
2019-05-23T01:41:47.122Z,9.20
2019-05-23T01:42:47.112Z,9.23
2019-05-23T01:43:47.102Z,9.32
2019-05-23T01:44:47.105Z,9.34
2019-05-23T01:45:47.080Z,9.32
2019-05-23T01:46:47.070Z,9.34
2019-05-23T01:47:47.057Z,9.28
2019-05-23T01:48:47.046Z,9.23
2019-05-23T01:49:47.037Z,9.18
2019-05-23T01:50:47.035Z,9.20
2019-05-23T01:51:47.015Z,9.16
2019-05-23T01:52:47.026Z,9.16
2019-05-23T01:53:46.993Z,9.15
2019-05-23T01:54:46.982Z,9.15
2019-05-23T01:55:46.975Z,9.10
2019-05-23T01:56:46.979Z,9.05
2019-05-23T01:57:46.950Z,9.02
2019-05-23T01:58:46.939Z,8.97
2019-05-23T01:59:46.928Z,9.05
2019-05-23T02:00:46.939Z,8.97
2019-05-23T02:01:46.909Z,9.04
2019-05-23T02:02:46.914Z,8.99
2019-05-23T02:03:46.884Z,9.01
2019-05-23T02:04:46.876Z,9.06
2019-05-23T02:05:46.863Z,8.97
2019-05-23T02:06:46.851Z,8.97
2019-05-23T02:07:46.841Z,8.97
2019-05-23T02:08:46.842Z,8.94
2019-05-23T02:09:46.825Z,8.87
2019-05-23T02:10:46.810Z,8.93
2019-05-23T02:11:46.797Z,8.84
2019-05-23T02:12:46.786Z,8.75
2019-05-23T02:13:46.779Z,8.88
2019-05-23T02:14:46.785Z,8.93
2019-05-23T02:15:46.757Z,8.91
2019-05-23T02:16:46.745Z,8.94
2019-05-23T02:17:46.737Z,8.93
2019-05-23T02:18:46.741Z,8.87
2019-05-23T02:19:46.719Z,8.83
2019-05-23T02:20:46.715Z,8.79
2019-05-23T02:21:46.694Z,8.87
2019-05-23T02:22:46.681Z,8.76
2019-05-23T02:23:46.672Z,8.76
2019-05-23T02:24:46.672Z,8.83
2019-05-23T02:25:46.651Z,8.81
2019-05-23T02:26:46.648Z,8.86
2019-05-23T02:27:46.632Z,8.84
2019-05-23T02:28:46.616Z,8.79
2019-05-23T02:29:46.607Z,8.88
2019-05-23T02:30:46.596Z,8.83
2019-05-23T02:31:46.585Z,8.81
2019-05-23T02:32:46.592Z,8.81
2019-05-23T02:33:46.563Z,8.75
2019-05-23T02:34:46.553Z,8.71
2019-05-23T02:35:46.543Z,8.69
2019-05-23T02:36:46.533Z,8.79
2019-05-23T02:37:46.525Z,8.71
2019-05-23T02:38:46.522Z,8.58
2019-05-23T02:39:46.505Z,8.65
2019-05-23T02:40:46.492Z,8.65
2019-05-23T02:41:46.479Z,8.57
2019-05-23T02:42:46.469Z,8.62
2019-05-23T02:43:46.457Z,8.55
2019-05-23T02:44:46.459Z,8.51
2019-05-23T02:45:46.435Z,8.45
2019-05-23T02:46:46.424Z,8.40
2019-05-23T02:47:46.416Z,8.39
2019-05-23T02:48:46.404Z,8.37
2019-05-23T02:49:46.393Z,8.36
2019-05-23T02:50:46.395Z,8.22
2019-05-23T02:51:46.372Z,8.28
2019-05-23T02:52:46.362Z,8.22
2019-05-23T02:53:46.350Z,8.21
2019-05-23T02:54:46.341Z,8.15
2019-05-23T02:55:46.328Z,8.14
2019-05-23T02:56:46.351Z,8.11
2019-05-23T02:57:46.307Z,8.08
2019-05-23T02:58:46.295Z,8.15
2019-05-23T02:59:46.285Z,8.14
2019-05-23T03:00:54.306Z,8.21
2019-05-23T03:01:47.273Z,8.32
2019-05-23T03:02:46.254Z,8.26
2019-05-23T03:03:46.241Z,8.28
2019-05-23T03:04:46.232Z,8.25
2019-05-23T03:05:46.220Z,8.14
2019-05-23T03:06:46.212Z,8.14
2019-05-23T03:07:46.214Z,8.11
2019-05-23T03:08:46.187Z,8.12
2019-05-23T03:09:46.181Z,8.07
2019-05-23T03:10:46.166Z,8.03
2019-05-23T03:11:46.156Z,8.03
2019-05-23T03:12:46.146Z,7.93
2019-05-23T03:13:46.151Z,8.04
2019-05-23T03:14:46.150Z,7.93
2019-05-23T03:15:46.115Z,8.08
2019-05-23T03:16:46.102Z,8.12
2019-05-23T03:17:46.095Z,8.08
2019-05-23T03:18:46.078Z,8.03
2019-05-23T03:19:46.090Z,8.07
2019-05-23T03:20:46.057Z,7.99
2019-05-23T03:21:46.047Z,8.08
2019-05-23T03:22:46.172Z,8.08
2019-05-23T03:23:46.024Z,8.04
2019-05-23T03:24:46.014Z,8.02
2019-05-23T03:25:46.012Z,8.14
2019-05-23T03:26:46.007Z,8.15
2019-05-23T03:27:45.983Z,8.11
2019-05-23T03:28:45.983Z,8.10
2019-05-23T03:29:45.959Z,8.14
2019-05-23T03:30:45.951Z,8.17
2019-05-23T03:31:45.953Z,8.10
2019-05-23T03:32:45.930Z,8.10
2019-05-23T03:33:45.918Z,8.08
2019-05-23T03:34:45.908Z,7.99
2019-05-23T03:35:45.895Z,7.96
2019-05-23T03:36:45.883Z,8.02
2019-05-23T03:37:45.931Z,8.08
2019-05-23T03:38:45.861Z,8.14
2019-05-23T03:39:45.851Z,8.12
2019-05-23T03:40:45.839Z,8.11
2019-05-23T03:41:45.830Z,8.08
2019-05-23T03:42:45.823Z,8.08
2019-05-23T03:43:45.817Z,8.15
2019-05-23T03:44:45.797Z,8.11
2019-05-23T03:45:45.791Z,8.17
2019-05-23T03:46:45.773Z,8.12
2019-05-23T03:47:45.763Z,8.12
2019-05-23T03:48:45.753Z,8.14
2019-05-23T03:49:45.752Z,8.11
2019-05-23T03:50:45.729Z,8.14
2019-05-23T03:51:45.717Z,8.11
2019-05-23T03:52:45.719Z,8.08
2019-05-23T03:53:45.695Z,8.08
2019-05-23T03:54:45.686Z,8.14
2019-05-23T03:55:45.697Z,8.20
2019-05-23T03:56:45.670Z,8.25
2019-05-23T03:57:45.657Z,8.25
2019-05-23T03:58:45.650Z,8.28
2019-05-23T03:59:45.636Z,8.22
2019-05-23T04:00:45.634Z,8.25
2019-05-23T04:01:48.424Z,8.29
2019-05-23T04:02:45.600Z,8.28
2019-05-23T04:03:45.602Z,8.33
2019-05-23T04:04:45.581Z,8.36
2019-05-23T04:05:45.568Z,8.39
2019-05-23T04:06:45.559Z,8.40
2019-05-23T04:07:45.558Z,8.42
2019-05-23T04:08:45.537Z,8.44
2019-05-23T04:09:45.528Z,8.47
2019-05-23T04:10:45.516Z,8.45
2019-05-23T04:11:45.513Z,8.50
2019-05-23T04:12:45.497Z,8.48
2019-05-23T04:13:45.494Z,8.50
2019-05-23T04:14:45.474Z,8.42
2019-05-23T04:15:45.462Z,8.40
2019-05-23T04:16:45.453Z,8.58
2019-05-23T04:17:45.454Z,8.54
2019-05-23T04:18:45.430Z,8.58
2019-05-23T04:19:45.439Z,8.54
2019-05-23T04:20:45.410Z,8.65
2019-05-23T04:21:45.417Z,8.60
2019-05-23T04:22:45.386Z,8.63
2019-05-23T04:23:45.377Z,8.76
2019-05-23T04:24:45.363Z,8.69
2019-05-23T04:25:45.371Z,8.73
2019-05-23T04:26:45.341Z,8.84
2019-05-23T04:27:45.330Z,8.99
2019-05-23T04:28:45.320Z,8.99
2019-05-23T04:29:45.309Z,9.15
2019-05-23T04:30:45.302Z,9.25
2019-05-23T04:31:45.300Z,9.35
2019-05-23T04:32:45.276Z,9.46
2019-05-23T04:33:45.355Z,9.56
2019-05-23T04:34:45.256Z,9.68
2019-05-23T04:35:45.242Z,9.73
2019-05-23T04:36:45.232Z,9.86
2019-05-23T04:37:45.232Z,10.00
2019-05-23T04:38:45.210Z,10.09
2019-05-23T04:39:45.203Z,10.32
2019-05-23T04:40:45.190Z,10.42
2019-05-23T04:41:45.185Z,10.53
2019-05-23T04:42:45.168Z,10.59
2019-05-23T04:43:45.167Z,10.60
2019-05-23T04:44:45.156Z,10.71
2019-05-23T04:45:45.134Z,10.76
2019-05-23T04:46:45.125Z,10.77
2019-05-23T04:47:45.116Z,10.88
2019-05-23T04:48:45.112Z,10.91
2019-05-23T04:49:45.102Z,10.92
2019-05-23T04:50:45.082Z,10.99
2019-05-23T04:51:45.069Z,10.98
2019-05-23T04:52:45.057Z,11.09
2019-05-23T04:53:45.053Z,11.20
2019-05-23T04:54:45.038Z,11.24
2019-05-23T04:55:45.038Z,11.29
2019-05-23T04:56:45.023Z,11.49
2019-05-23T04:57:45.003Z,11.50
2019-05-23T04:58:44.999Z,11.64
2019-05-23T04:59:44.984Z,11.65
2019-05-23T05:00:44.979Z,11.70
2019-05-23T05:01:44.977Z,11.68
2019-05-23T05:02:44.949Z,11.77
2019-05-23T05:03:44.958Z,11.71
2019-05-23T05:04:44.932Z,11.89
2019-05-23T05:05:44.917Z,11.97
2019-05-23T05:06:44.908Z,12.13
2019-05-23T05:07:44.931Z,12.20
2019-05-23T05:08:44.885Z,12.29
2019-05-23T05:09:44.875Z,12.39
2019-05-23T05:10:44.863Z,12.42
2019-05-23T05:11:44.853Z,12.66
2019-05-23T05:12:44.846Z,12.79
2019-05-23T05:13:44.841Z,12.84
2019-05-23T05:14:44.821Z,12.97
2019-05-23T05:15:44.809Z,12.95
2019-05-23T05:16:44.800Z,13.03
2019-05-23T05:17:44.785Z,13.17
2019-05-23T05:18:44.830Z,13.21
2019-05-23T05:19:44.774Z,13.33
2019-05-23T05:20:44.765Z,13.32
2019-05-23T05:21:44.742Z,13.36
2019-05-23T05:22:44.733Z,13.32
2019-05-23T05:23:44.726Z,13.32
2019-05-23T05:24:44.710Z,13.30
2019-05-23T05:25:44.709Z,13.38
2019-05-23T05:26:44.691Z,13.51
2019-05-23T05:27:44.679Z,13.55
2019-05-23T05:28:44.669Z,13.65
2019-05-23T05:29:44.659Z,13.67
2019-05-23T05:30:44.656Z,13.76
2019-05-23T05:31:44.644Z,13.79
2019-05-23T05:32:45.808Z,13.92
2019-05-23T05:33:44.613Z,14.04
2019-05-23T05:34:44.607Z,14.10
2019-05-23T05:35:44.591Z,14.20
2019-05-23T05:36:44.582Z,14.38
2019-05-23T05:37:44.586Z,14.42
2019-05-23T05:38:44.560Z,14.21
2019-05-23T05:39:44.550Z,14.29
2019-05-23T05:40:44.537Z,14.35
2019-05-23T05:41:44.525Z,14.64
2019-05-23T05:42:44.514Z,14.80
2019-05-23T05:43:44.521Z,14.78
2019-05-23T05:44:44.494Z,14.91
2019-05-23T05:45:44.486Z,15.11
2019-05-23T05:46:44.473Z,15.12
2019-05-23T05:47:44.469Z,15.17
2019-05-23T05:48:44.463Z,15.31
2019-05-23T05:49:44.456Z,15.42
2019-05-23T05:50:44.453Z,15.54
2019-05-23T05:51:44.418Z,15.76
2019-05-23T05:52:44.408Z,15.86
2019-05-23T05:53:44.420Z,15.99
2019-05-23T05:54:44.385Z,15.84
2019-05-23T05:55:44.385Z,15.97
2019-05-23T05:56:44.363Z,16.01
2019-05-23T05:57:44.358Z,15.86
2019-05-23T05:58:44.345Z,15.84
2019-05-23T05:59:44.335Z,15.76
2019-05-23T06:00:44.336Z,15.78
2019-05-23T06:01:44.320Z,15.96
2019-05-23T06:03:00.866Z,16.00
2019-05-23T06:03:45.287Z,16.09
2019-05-23T06:04:44.277Z,16.18
2019-05-23T06:05:44.273Z,16.38
2019-05-23T06:06:44.257Z,16.48
2019-05-23T06:07:44.256Z,16.55
2019-05-23T06:08:44.238Z,16.75
2019-05-23T06:09:44.225Z,16.92
2019-05-23T06:10:44.215Z,17.00
2019-05-23T06:11:44.203Z,17.17
2019-05-23T06:12:44.194Z,17.32
2019-05-23T06:13:44.190Z,17.44
2019-05-23T06:14:46.503Z,17.48
2019-05-23T06:15:44.161Z,17.62
2019-05-23T06:16:44.153Z,17.84
2019-05-23T06:17:44.138Z,17.91
2019-05-23T06:18:44.159Z,18.03
2019-05-23T06:19:44.156Z,18.22
2019-05-23T06:20:44.108Z,18.33
2019-05-23T06:21:44.096Z,18.47
2019-05-23T06:22:44.099Z,18.47
2019-05-23T06:23:44.081Z,18.52
2019-05-23T06:24:50.357Z,18.57
2019-05-23T06:25:45.063Z,18.58
2019-05-23T06:26:44.041Z,18.52
2019-05-23T06:27:44.032Z,18.43
2019-05-23T06:28:44.020Z,18.47
2019-05-23T06:29:44.012Z,18.62
2019-05-23T06:30:43.998Z,18.64
2019-05-23T06:31:44.010Z,18.47
2019-05-23T06:32:43.983Z,18.68
2019-05-23T06:33:43.967Z,18.84
2019-05-23T06:34:43.957Z,18.83
2019-05-23T06:35:43.970Z,18.67
2019-05-23T06:36:43.934Z,18.64
2019-05-23T06:37:43.936Z,18.83
2019-05-23T06:38:43.914Z,18.95
2019-05-23T06:39:44.015Z,19.02
2019-05-23T06:40:43.894Z,19.11
2019-05-23T06:41:43.881Z,18.84
2019-05-23T06:42:44.074Z,18.86
2019-05-23T06:43:43.878Z,19.10
2019-05-23T06:44:43.852Z,19.39
2019-05-23T06:45:43.841Z,19.47
2019-05-23T06:46:43.828Z,19.33
2019-05-23T06:47:43.819Z,19.25
2019-05-23T06:48:45.828Z,19.24
2019-05-23T06:49:43.806Z,19.33
2019-05-23T06:50:43.786Z,19.39
2019-05-23T06:51:43.777Z,19.54
2019-05-23T06:52:43.773Z,19.68
2019-05-23T06:53:43.760Z,19.54
2019-05-23T06:54:43.745Z,19.61
2019-05-23T06:55:43.744Z,19.78
2019-05-23T06:56:43.734Z,19.97
2019-05-23T06:57:43.713Z,20.05
2019-05-23T06:58:43.701Z,20.15
2019-05-23T06:59:43.690Z,20.03
2019-05-23T07:00:43.685Z,19.87
2019-05-23T07:01:43.690Z,19.86
2019-05-23T07:02:43.660Z,19.65
2019-05-23T07:03:44.143Z,19.57
2019-05-23T07:04:43.637Z,19.32
2019-05-23T07:05:43.628Z,19.38
2019-05-23T07:06:43.616Z,19.28
2019-05-23T07:07:43.674Z,19.11
2019-05-23T07:08:43.596Z,19.14
2019-05-23T07:09:43.583Z,19.24
2019-05-23T07:10:44.633Z,19.31
2019-05-23T07:11:43.573Z,19.35
2019-05-23T07:12:43.552Z,19.57
2019-05-23T07:13:43.554Z,19.70
2019-05-23T07:14:43.533Z,19.73
2019-05-23T07:15:43.522Z,19.61
2019-05-23T07:16:43.519Z,19.46
2019-05-23T07:17:43.506Z,19.63
2019-05-23T07:18:43.691Z,19.55
2019-05-23T07:19:43.492Z,19.60
2019-05-23T07:20:43.494Z,19.53
2019-05-23T07:21:43.459Z,19.68
2019-05-23T07:22:43.448Z,19.47
2019-05-23T07:23:43.440Z,19.36
2019-05-23T07:24:57.393Z,19.33
2019-05-23T07:25:44.464Z,19.18
2019-05-23T07:26:43.408Z,19.20
2019-05-23T07:27:43.404Z,19.42
2019-05-23T07:28:43.387Z,19.60
2019-05-23T07:29:43.374Z,19.78
2019-05-23T07:30:43.425Z,20.03
2019-05-23T07:31:43.363Z,20.25
2019-05-23T07:32:43.343Z,20.41
2019-05-23T07:34:00.365Z,20.71
2019-05-23T07:34:44.321Z,20.86
2019-05-23T07:35:43.310Z,21.05
2019-05-23T07:36:43.342Z,21.14
2019-05-23T07:37:43.306Z,20.98
2019-05-23T07:38:43.279Z,20.72
2019-05-23T07:39:43.268Z,20.90
2019-05-23T07:40:43.336Z,20.95
2019-05-23T07:41:43.248Z,21.09
2019-05-23T07:42:43.236Z,21.30
2019-05-23T07:43:43.249Z,21.45
2019-05-23T07:44:48.389Z,21.46
2019-05-23T07:45:44.205Z,21.63
2019-05-23T07:46:43.194Z,21.44
2019-05-23T07:47:43.186Z,21.41
2019-05-23T07:48:43.176Z,21.45
2019-05-23T07:49:43.186Z,21.54
2019-05-23T07:50:43.168Z,21.36
2019-05-23T07:51:43.144Z,21.21
2019-05-23T07:52:43.166Z,20.91
2019-05-23T07:53:43.994Z,20.84
2019-05-23T07:54:43.113Z,20.77
2019-05-23T07:55:43.115Z,20.69
2019-05-23T07:56:43.101Z,20.83
2019-05-23T07:57:43.082Z,21.06
2019-05-23T07:58:43.072Z,21.17
2019-05-23T07:59:43.062Z,21.21
2019-05-23T08:00:43.053Z,21.23
2019-05-23T08:01:43.052Z,21.30
2019-05-23T08:02:43.032Z,21.26
2019-05-23T08:03:43.020Z,21.16
2019-05-23T08:04:43.012Z,21.16
2019-05-23T08:05:43.001Z,21.08
2019-05-23T08:06:42.991Z,21.13
2019-05-23T08:07:43.072Z,21.05
2019-05-23T08:08:42.983Z,21.14
2019-05-23T08:09:42.958Z,21.14
2019-05-23T08:10:42.950Z,21.16
2019-05-23T08:11:42.936Z,21.23
2019-05-23T08:12:42.927Z,21.30
2019-05-23T08:13:42.945Z,21.53
2019-05-23T08:14:42.905Z,21.64
2019-05-23T08:15:42.899Z,21.78
2019-05-23T08:16:42.930Z,22.02
2019-05-23T08:17:42.876Z,22.10
2019-05-23T08:18:42.867Z,22.01
2019-05-23T08:19:49.735Z,21.94
2019-05-23T08:20:43.842Z,21.85
2019-05-23T08:21:42.832Z,21.99
2019-05-23T08:22:42.825Z,21.92
2019-05-23T08:23:42.811Z,21.94
2019-05-23T08:24:42.801Z,22.07
2019-05-23T08:25:42.800Z,22.06
2019-05-23T08:26:42.781Z,21.91
2019-05-23T08:27:42.771Z,21.85
2019-05-23T08:29:00.914Z,21.83
2019-05-23T08:29:43.744Z,22.02
2019-05-23T08:30:42.740Z,22.01
2019-05-23T08:31:42.735Z,22.10
2019-05-23T08:32:42.717Z,22.09
2019-05-23T08:33:42.702Z,22.19
2019-05-23T08:34:43.092Z,22.32
2019-05-23T08:35:42.679Z,22.32
2019-05-23T08:36:42.671Z,22.35
2019-05-23T08:37:42.678Z,22.43
2019-05-23T08:38:42.649Z,22.49
2019-05-23T08:39:42.637Z,22.62
2019-05-23T08:40:42.626Z,22.74
2019-05-23T08:41:42.616Z,22.83
2019-05-23T08:42:42.605Z,22.83
2019-05-23T08:43:42.609Z,22.77
2019-05-23T08:44:42.587Z,22.92
2019-05-23T08:45:42.576Z,22.86
2019-05-23T08:46:42.566Z,23.05
2019-05-23T08:47:42.555Z,23.02
2019-05-23T08:48:42.544Z,23.05
2019-05-23T08:49:42.555Z,23.11
2019-05-23T08:50:42.524Z,23.07
2019-05-23T08:51:42.513Z,22.89
2019-05-23T08:52:42.504Z,22.82
2019-05-23T08:53:42.493Z,22.83
2019-05-23T08:54:42.483Z,22.90
2019-05-23T08:55:42.485Z,22.96
2019-05-23T08:56:42.467Z,23.02
2019-05-23T08:57:42.452Z,22.87
2019-05-23T08:58:42.441Z,22.92
2019-05-23T08:59:42.431Z,22.96
2019-05-23T09:00:42.421Z,22.89
2019-05-23T09:01:42.426Z,22.89
2019-05-23T09:02:42.401Z,22.89
2019-05-23T09:03:42.392Z,22.89
2019-05-23T09:05:02.181Z,22.83
2019-05-23T09:05:43.369Z,22.84
2019-05-23T09:06:42.373Z,22.93
2019-05-23T09:07:42.361Z,22.89
2019-05-23T09:08:42.342Z,22.93
2019-05-23T09:09:42.328Z,22.90
2019-05-23T09:10:42.317Z,22.82
2019-05-23T09:11:42.309Z,22.72
2019-05-23T09:12:42.301Z,22.77
2019-05-23T09:13:42.302Z,22.83
2019-05-23T09:14:42.280Z,22.83
2019-05-23T09:15:42.404Z,22.74
2019-05-23T09:16:42.258Z,22.64
2019-05-23T09:17:52.380Z,22.60
2019-05-23T09:18:43.246Z,22.62
2019-05-23T09:19:42.230Z,22.67
2019-05-23T09:20:42.215Z,22.77
2019-05-23T09:21:42.204Z,22.78
2019-05-23T09:22:42.200Z,22.86
2019-05-23T09:23:42.187Z,22.82
2019-05-23T09:24:42.187Z,22.89
2019-05-23T09:25:42.162Z,22.96
2019-05-23T09:26:42.151Z,22.99
2019-05-23T09:27:42.145Z,22.94
2019-05-23T09:28:42.129Z,22.96
2019-05-23T09:29:42.119Z,23.01
2019-05-23T09:30:42.126Z,22.87
2019-05-23T09:31:42.096Z,23.07
2019-05-23T09:32:42.092Z,23.08
2019-05-23T09:33:42.079Z,23.04
2019-05-23T09:34:42.066Z,23.05
2019-05-23T09:35:42.065Z,23.09
2019-05-23T09:36:42.055Z,23.17
2019-05-23T09:37:42.035Z,23.08
2019-05-23T09:38:42.025Z,23.08
2019-05-23T09:39:42.016Z,23.19
2019-05-23T09:40:42.063Z,23.11
2019-05-23T09:41:42.001Z,23.09
2019-05-23T09:42:41.998Z,23.07
2019-05-23T09:43:41.979Z,23.24
2019-05-23T09:44:41.970Z,23.15
2019-05-23T09:45:41.953Z,23.17
2019-05-23T09:46:41.942Z,23.32
2019-05-23T09:47:41.933Z,23.38
2019-05-23T09:48:41.941Z,23.49
2019-05-23T09:49:41.914Z,23.29
2019-05-23T09:50:41.902Z,23.23
2019-05-23T09:51:41.890Z,23.11
2019-05-23T09:52:41.879Z,22.92
2019-05-23T09:53:47.020Z,22.94
2019-05-23T09:54:42.869Z,22.92
2019-05-23T09:55:41.848Z,22.99
2019-05-23T09:56:41.840Z,23.04
2019-05-23T09:57:41.849Z,23.11
2019-05-23T09:58:41.817Z,23.08
2019-05-23T09:59:41.818Z,23.02
2019-05-23T10:00:41.811Z,23.07
2019-05-23T10:01:41.787Z,23.04
2019-05-23T10:02:41.774Z,22.86
2019-05-23T10:03:41.778Z,22.86
2019-05-23T10:04:41.767Z,22.75
2019-05-23T10:05:44.057Z,22.67
2019-05-23T10:06:41.744Z,22.59
2019-05-23T10:07:41.722Z,22.54
2019-05-23T10:08:41.714Z,22.65
2019-05-23T10:09:41.711Z,22.72
2019-05-23T10:10:41.709Z,22.75
2019-05-23T10:11:41.681Z,22.87
2019-05-23T10:12:41.679Z,22.96
2019-05-23T10:13:41.658Z,22.97
2019-05-23T10:14:41.648Z,23.23
2019-05-23T10:15:41.639Z,23.12
2019-05-23T10:16:41.628Z,23.17
2019-05-23T10:17:41.617Z,23.17
2019-05-23T10:18:41.621Z,23.23
2019-05-23T10:19:41.596Z,23.17
2019-05-23T10:20:41.586Z,23.11
2019-05-23T10:21:41.574Z,23.05
2019-05-23T10:22:41.566Z,23.08
2019-05-23T10:23:41.568Z,23.05
2019-05-23T10:24:41.553Z,23.12
2019-05-23T10:25:41.534Z,23.08
2019-05-23T10:26:41.523Z,23.01
2019-05-23T10:27:41.512Z,22.84
2019-05-23T10:28:41.502Z,22.84
2019-05-23T10:29:41.491Z,22.75
2019-05-23T10:30:41.494Z,22.57
2019-05-23T10:31:41.470Z,22.54
2019-05-23T10:32:41.479Z,22.53
2019-05-23T10:33:41.449Z,22.60
2019-05-23T10:34:41.442Z,22.62
2019-05-23T10:35:56.881Z,22.71
2019-05-23T10:36:42.427Z,22.75
2019-05-23T10:37:41.407Z,22.74
2019-05-23T10:38:41.396Z,22.80
2019-05-23T10:39:41.386Z,22.78
2019-05-23T10:40:41.376Z,22.77
2019-05-23T10:41:41.366Z,22.77
2019-05-23T10:42:41.364Z,22.78
2019-05-23T10:43:41.344Z,22.65
2019-05-23T10:44:44.759Z,22.62
2019-05-23T10:45:41.327Z,22.75
2019-05-23T10:46:41.314Z,22.80
2019-05-23T10:47:41.312Z,22.80
2019-05-23T10:48:41.305Z,22.82
2019-05-23T10:49:41.284Z,22.75
2019-05-23T10:50:44.937Z,22.62
2019-05-23T10:51:41.262Z,22.65
2019-05-23T10:52:41.248Z,22.75
2019-05-23T10:53:41.240Z,22.78
2019-05-23T10:54:41.237Z,22.84
2019-05-23T10:55:41.289Z,22.84
2019-05-23T10:56:41.206Z,22.80
2019-05-23T10:57:41.197Z,22.83
2019-05-23T10:58:41.198Z,22.83
2019-05-23T10:59:41.175Z,22.77
2019-05-23T11:00:41.177Z,22.78
2019-05-23T11:01:41.155Z,22.83
2019-05-23T11:02:41.155Z,22.82
2019-05-23T11:03:41.136Z,22.78
2019-05-23T11:04:41.126Z,22.74
2019-05-23T11:05:41.111Z,22.78
2019-05-23T11:06:41.113Z,22.77
2019-05-23T11:07:41.143Z,22.86
2019-05-23T11:08:41.080Z,22.96
2019-05-23T11:09:41.068Z,22.96
2019-05-23T11:10:41.113Z,23.04
2019-05-23T11:11:41.249Z,23.09
2019-05-23T11:12:41.047Z,23.20
2019-05-23T11:13:41.027Z,23.22
2019-05-23T11:14:41.017Z,23.17
2019-05-23T11:15:41.014Z,23.17
2019-05-23T11:16:40.992Z,23.24
2019-05-23T11:17:40.997Z,23.29
2019-05-23T11:18:41.067Z,23.27
2019-05-23T11:19:40.969Z,23.34
2019-05-23T11:20:40.949Z,23.29
2019-05-23T11:21:40.941Z,23.31
2019-05-23T11:22:40.928Z,23.31
2019-05-23T11:23:40.919Z,23.34
2019-05-23T11:24:40.924Z,23.43
2019-05-23T11:25:40.897Z,23.38
2019-05-23T11:26:40.889Z,23.19
2019-05-23T11:27:40.891Z,22.97
2019-05-23T11:28:40.864Z,22.90
2019-05-23T11:29:40.858Z,22.96
2019-05-23T11:30:40.854Z,23.09
2019-05-23T11:31:40.837Z,23.11
2019-05-23T11:32:40.885Z,23.17
2019-05-23T11:33:40.814Z,23.31
2019-05-23T11:34:40.804Z,23.35
2019-05-23T11:35:40.795Z,23.27
2019-05-23T11:36:40.791Z,23.27
2019-05-23T11:37:42.022Z,23.29
2019-05-23T11:38:40.819Z,23.29
2019-05-23T11:39:48.876Z,23.19
2019-05-23T11:40:41.738Z,23.26
2019-05-23T11:41:40.728Z,23.27
2019-05-23T11:42:40.737Z,23.29
2019-05-23T11:43:40.707Z,23.31
2019-05-23T11:44:40.736Z,23.27
2019-05-23T11:45:45.900Z,23.24
2019-05-23T11:46:41.674Z,23.19
2019-05-23T11:47:40.665Z,23.24
2019-05-23T11:48:40.666Z,23.20
2019-05-23T11:49:40.675Z,23.05
2019-05-23T11:50:40.633Z,23.05
2019-05-23T11:51:40.626Z,23.04
2019-05-23T11:52:40.613Z,23.11
2019-05-23T11:53:40.608Z,23.05
2019-05-23T11:54:40.604Z,23.11
2019-05-23T11:55:40.592Z,23.17
2019-05-23T11:56:40.571Z,23.20
2019-05-23T11:57:40.561Z,23.19
2019-05-23T11:58:40.551Z,23.22
2019-05-23T11:59:40.541Z,23.20
2019-05-23T12:00:40.749Z,23.20
2019-05-23T12:01:40.520Z,23.08
2019-05-23T12:02:40.507Z,23.09
2019-05-23T12:03:40.495Z,22.89
2019-05-23T12:04:40.488Z,22.84
2019-05-23T12:05:40.484Z,22.89
2019-05-23T12:06:54.318Z,22.83
2019-05-23T12:07:41.456Z,22.92
2019-05-23T12:08:40.444Z,22.93
2019-05-23T12:09:40.435Z,22.89
2019-05-23T12:10:40.427Z,22.82
2019-05-23T12:11:42.587Z,22.89
2019-05-23T12:12:40.411Z,22.89
2019-05-23T12:13:40.391Z,23.05
2019-05-23T12:14:40.383Z,23.08
2019-05-23T12:15:40.372Z,23.17
2019-05-23T12:16:40.360Z,23.24
2019-05-23T12:17:40.362Z,23.32
2019-05-23T12:18:40.354Z,23.31
2019-05-23T12:19:40.330Z,23.43
2019-05-23T12:20:40.315Z,23.40
2019-05-23T12:21:40.329Z,23.38
2019-05-23T12:22:40.634Z,23.32
2019-05-23T12:23:40.285Z,23.14
2019-05-23T12:24:40.293Z,23.04
2019-05-23T12:25:40.273Z,22.80
2019-05-23T12:26:40.252Z,22.86
2019-05-23T12:27:40.245Z,22.87
2019-05-23T12:28:40.232Z,23.05
2019-05-23T12:29:40.314Z,23.05
2019-05-23T12:30:40.224Z,23.24
2019-05-23T12:31:40.200Z,23.34
2019-05-23T12:32:40.202Z,23.55
2019-05-23T12:33:40.189Z,23.62
2019-05-23T12:34:40.168Z,23.80
2019-05-23T12:35:40.157Z,23.79
2019-05-23T12:36:40.167Z,23.83
2019-05-23T12:37:40.141Z,23.85
2019-05-23T12:38:40.140Z,23.87
2019-05-23T12:39:40.115Z,23.82
2019-05-23T12:40:40.103Z,23.79
2019-05-23T12:41:40.097Z,23.77
2019-05-23T12:42:40.094Z,23.76
2019-05-23T12:43:40.074Z,23.79
2019-05-23T12:44:40.073Z,23.72
2019-05-23T12:45:40.049Z,23.72
2019-05-23T12:46:40.040Z,23.79
2019-05-23T12:47:40.030Z,23.75
2019-05-23T12:48:40.028Z,23.72
2019-05-23T12:49:40.022Z,23.64
2019-05-23T12:50:39.996Z,23.64
2019-05-23T12:51:39.992Z,23.58
2019-05-23T12:52:39.973Z,23.65
2019-05-23T12:53:39.967Z,23.70
2019-05-23T12:54:39.962Z,23.71
2019-05-23T12:55:39.940Z,23.70
2019-05-23T12:56:39.930Z,23.79
2019-05-23T12:57:39.921Z,23.87
2019-05-23T12:58:39.911Z,23.90
2019-05-23T12:59:39.901Z,23.90